createdAt,value
2023-02-06T00:01:13.995Z,58.20
2023-02-06T00:03:40.920Z,44.13
2023-02-06T00:06:07.854Z,47.50
2023-02-06T00:08:34.860Z,47.80
2023-02-06T00:11:10.966Z,47.33
2023-02-06T00:13:38.191Z,47.10
2023-02-06T00:16:05.533Z,51.33
2023-02-06T00:18:32.449Z,53.20
2023-02-06T00:20:59.200Z,45.63
2023-02-06T00:23:25.867Z,45.27
2023-02-06T00:25:52.575Z,45.63
2023-02-06T00:28:19.369Z,45.20
2023-02-06T00:30:47.433Z,42.27
2023-02-06T00:33:14.434Z,45.20
2023-02-06T00:35:41.498Z,43.63
2023-02-06T00:38:12.593Z,44.83
2023-02-06T00:40:39.440Z,56.77
2023-02-06T00:43:06.210Z,50.20
2023-02-06T00:45:33.702Z,46.80
2023-02-06T00:48:01.069Z,47.70
2023-02-06T00:50:28.359Z,48.73
2023-02-06T00:52:55.097Z,46.93
2023-02-06T00:55:21.819Z,50.80
2023-02-06T00:57:48.574Z,49.43
2023-02-06T01:00:15.842Z,37.30
2023-02-06T01:02:42.692Z,43.60
2023-02-06T01:05:09.640Z,49.47
2023-02-06T01:07:40.280Z,55.53
2023-02-06T01:10:08.179Z,55.60
2023-02-06T01:12:36.268Z,41.27
2023-02-06T01:15:05.297Z,46.70
2023-02-06T01:17:33.284Z,49.33
2023-02-06T01:20:00.311Z,61.20
2023-02-06T01:22:30.160Z,38.00
2023-02-06T01:24:56.863Z,53.10
2023-02-06T01:27:23.592Z,41.87
2023-02-06T01:29:50.292Z,41.20
2023-02-06T01:32:18.598Z,52.53
2023-02-06T01:34:45.518Z,44.27
2023-02-06T01:37:12.677Z,41.33
2023-02-06T01:39:39.402Z,51.73
2023-02-06T01:42:06.187Z,41.23
2023-02-06T01:44:33.916Z,54.30
2023-02-06T01:47:00.616Z,49.53
2023-02-06T01:49:35.695Z,45.80
2023-02-06T01:52:30.354Z,35.87
2023-02-06T01:55:03.184Z,39.63
2023-02-06T01:57:31.204Z,50.30
2023-02-06T02:00:03.003Z,52.47
2023-02-06T02:02:31.709Z,68.33
2023-02-06T02:04:59.930Z,53.93
2023-02-06T02:07:32.041Z,43.03
2023-02-06T02:09:58.776Z,54.33
2023-02-06T02:12:25.488Z,44.87
2023-02-06T02:14:53.771Z,42.10
2023-02-06T02:17:41.948Z,46.13
2023-02-06T02:20:27.243Z,49.53
2023-02-06T02:23:12.508Z,57.97
2023-02-06T02:26:01.588Z,34.13
2023-02-06T02:28:40.249Z,64.73
2023-02-06T02:31:33.977Z,39.13
2023-02-06T02:34:00.649Z,43.27
2023-02-06T02:36:48.254Z,54.67
2023-02-06T02:39:20.859Z,48.30
2023-02-06T02:42:00.178Z,53.73
2023-02-06T02:44:32.605Z,53.50
2023-02-06T02:47:04.008Z,61.27
2023-02-06T02:49:34.627Z,41.17
2023-02-06T02:52:02.041Z,63.53
2023-02-06T02:54:28.770Z,39.20
2023-02-06T02:57:06.102Z,49.37
2023-02-06T02:59:37.794Z,43.00
2023-02-06T03:02:15.860Z,56.17
2023-02-06T03:04:47.873Z,49.90
2023-02-06T03:07:48.644Z,48.83
2023-02-06T03:10:20.723Z,53.03
2023-02-06T03:13:21.001Z,45.87
2023-02-06T03:16:02.672Z,44.80
2023-02-06T03:18:44.422Z,58.77
2023-02-06T03:21:16.307Z,49.17
2023-02-06T03:23:46.025Z,53.50
2023-02-06T03:26:19.199Z,53.27
2023-02-06T03:28:51.482Z,60.93
2023-02-06T03:31:36.237Z,46.90
2023-02-06T03:34:13.959Z,50.57
2023-02-06T03:36:41.074Z,38.17
2023-02-06T03:39:07.926Z,37.60
2023-02-06T03:41:38.236Z,61.60
2023-02-06T03:44:09.632Z,56.40
2023-02-06T03:46:38.636Z,59.33
2023-02-06T03:49:08.445Z,57.07
2023-02-06T03:51:45.977Z,44.50
2023-02-06T03:54:16.964Z,36.17
2023-02-06T03:56:46.152Z,48.03
2023-02-06T03:59:13.341Z,56.87
2023-02-06T04:01:44.537Z,51.57
2023-02-06T04:04:14.045Z,38.83
2023-02-06T04:06:40.926Z,37.97
2023-02-06T04:09:07.702Z,41.03
2023-02-06T04:11:34.481Z,35.43
2023-02-06T04:14:01.195Z,45.33
2023-02-06T04:16:28.124Z,46.10
2023-02-06T04:18:54.870Z,43.10
2023-02-06T04:21:21.822Z,42.77
2023-02-06T04:23:48.508Z,44.43
2023-02-06T04:26:15.283Z,38.43
2023-02-06T04:28:42.053Z,56.63
2023-02-06T04:31:08.949Z,45.20
2023-02-06T04:33:36.105Z,46.30
2023-02-06T04:36:02.855Z,42.37
2023-02-06T04:38:29.637Z,57.73
2023-02-06T04:41:05.378Z,48.63
2023-02-06T04:43:33.303Z,39.10
2023-02-06T04:46:00.246Z,37.80
2023-02-06T04:48:27.450Z,57.40
2023-02-06T04:50:54.193Z,46.10
2023-02-06T04:53:21.354Z,49.07
2023-02-06T04:55:48.687Z,42.40
2023-02-06T04:58:15.830Z,54.27
2023-02-06T05:00:42.922Z,49.47
2023-02-06T05:03:10.054Z,33.90
2023-02-06T05:05:36.970Z,47.77
2023-02-06T05:08:03.865Z,51.40
2023-02-06T05:10:30.646Z,45.70
2023-02-06T05:12:57.356Z,34.53
2023-02-06T05:15:24.126Z,75.60
2023-02-06T05:17:50.916Z,73.57
2023-02-06T05:20:26.494Z,98.50
2023-02-06T05:22:53.280Z,90.53
2023-02-06T05:25:20.094Z,50.37
2023-02-06T05:27:46.884Z,51.10
2023-02-06T05:30:14.374Z,45.83
2023-02-06T05:32:41.370Z,69.30
2023-02-06T05:35:08.316Z,81.53
2023-02-06T05:37:37.142Z,41.77
2023-02-06T05:40:04.291Z,85.03
2023-02-06T05:42:31.229Z,57.73
2023-02-06T05:44:58.013Z,86.50
2023-02-06T05:47:26.085Z,77.80
2023-02-06T05:49:52.855Z,148.07
2023-02-06T05:52:19.645Z,123.23
2023-02-06T05:54:46.801Z,133.33
2023-02-06T05:57:13.945Z,115.77
2023-02-06T05:59:40.692Z,99.93
2023-02-06T06:02:07.472Z,73.97
2023-02-06T06:04:34.727Z,63.83
2023-02-06T06:07:01.562Z,65.73
2023-02-06T06:09:28.389Z,56.53
2023-02-06T06:11:55.226Z,68.47
2023-02-06T06:14:22.015Z,70.20
2023-02-06T06:16:48.799Z,68.87
2023-02-06T06:19:15.552Z,68.57
2023-02-06T06:21:42.720Z,69.10
2023-02-06T06:24:09.629Z,58.60
2023-02-06T06:26:36.368Z,83.23
2023-02-06T06:29:03.445Z,71.70
2023-02-06T06:31:30.184Z,128.67
2023-02-06T06:33:57.048Z,66.33
2023-02-06T06:36:24.201Z,53.33
2023-02-06T06:38:50.951Z,108.90
2023-02-06T06:41:17.756Z,52.60
2023-02-06T06:43:44.501Z,83.00
2023-02-06T06:46:11.317Z,65.07
2023-02-06T06:48:38.487Z,75.63
2023-02-06T06:51:06.226Z,110.47
2023-02-06T06:53:33.394Z,75.43
2023-02-06T06:56:07.945Z,82.10
2023-02-06T06:58:34.887Z,117.17
2023-02-06T07:01:02.457Z,72.83
2023-02-06T07:03:29.278Z,106.13
2023-02-06T07:05:55.994Z,87.33
2023-02-06T07:08:22.850Z,105.53
2023-02-06T07:10:49.638Z,132.87
2023-02-06T07:13:17.741Z,115.27
2023-02-06T07:15:44.454Z,157.60
2023-02-06T07:18:11.954Z,132.80
2023-02-06T07:20:38.988Z,184.83
2023-02-06T07:23:06.030Z,94.07
2023-02-06T07:25:33.381Z,128.40
2023-02-06T07:28:00.199Z,151.50
2023-02-06T07:30:26.996Z,110.73
2023-02-06T07:32:53.790Z,102.87
2023-02-06T07:35:20.493Z,110.00
2023-02-06T07:37:47.379Z,86.83
2023-02-06T07:40:14.119Z,78.20
2023-02-06T07:42:41.053Z,141.30
2023-02-06T07:45:08.197Z,92.03
2023-02-06T07:47:34.962Z,132.33
2023-02-06T07:50:01.974Z,111.60
2023-02-06T07:52:28.645Z,125.17
2023-02-06T07:54:55.414Z,109.67
2023-02-06T07:57:22.478Z,80.63
2023-02-06T07:59:49.270Z,74.03
2023-02-06T08:02:16.005Z,80.70
2023-02-06T08:04:43.010Z,65.90
2023-02-06T08:07:14.728Z,69.73
2023-02-06T08:09:42.062Z,78.77
2023-02-06T08:12:10.944Z,91.40
2023-02-06T08:14:38.990Z,102.73
2023-02-06T08:17:05.831Z,92.20
2023-02-06T08:19:32.551Z,128.47
2023-02-06T08:21:59.293Z,168.77
2023-02-06T08:24:26.070Z,100.80
2023-02-06T08:26:52.768Z,88.13
2023-02-06T08:29:19.624Z,96.77
2023-02-06T08:31:46.687Z,78.23
2023-02-06T08:34:14.794Z,108.47
2023-02-06T08:36:43.578Z,117.00
2023-02-06T08:39:13.724Z,99.70
2023-02-06T08:41:42.631Z,139.93
2023-02-06T08:44:16.742Z,98.30
2023-02-06T08:46:45.588Z,95.47
2023-02-06T08:49:15.192Z,89.47
2023-02-06T08:51:42.055Z,91.07
2023-02-06T08:54:12.387Z,116.70
2023-02-06T08:56:39.646Z,121.93
2023-02-06T08:59:07.561Z,102.27
2023-02-06T09:01:36.765Z,97.10
2023-02-06T09:04:06.968Z,72.90
2023-02-06T09:06:39.925Z,82.80
2023-02-06T09:09:08.187Z,96.00
2023-02-06T09:11:35.437Z,71.37
2023-02-06T09:14:03.895Z,68.20
2023-02-06T09:16:33.457Z,79.80
2023-02-06T09:19:01.492Z,77.40
2023-02-06T09:21:30.920Z,80.43
2023-02-06T09:24:00.755Z,79.53
2023-02-06T09:26:33.433Z,101.43
2023-02-06T09:29:02.997Z,86.50
2023-02-06T09:31:33.522Z,58.40
2023-02-06T09:34:00.433Z,103.83
2023-02-06T09:36:28.516Z,100.60
2023-02-06T09:38:57.267Z,78.97
2023-02-06T09:41:26.740Z,87.13
2023-02-06T09:44:01.433Z,69.37
2023-02-06T09:46:32.885Z,71.93
2023-02-06T09:49:05.999Z,64.70
2023-02-06T09:51:56.283Z,58.33
2023-02-06T09:54:43.680Z,75.70
2023-02-06T09:57:31.544Z,83.50
2023-02-06T10:00:28.627Z,97.17
2023-02-06T10:03:10.310Z,74.83
2023-02-06T10:05:47.758Z,59.50
2023-02-06T10:08:37.506Z,98.27
2023-02-06T10:11:28.043Z,81.03
2023-02-06T10:14:00.050Z,73.17
2023-02-06T10:16:54.676Z,78.13
2023-02-06T10:19:48.148Z,79.90
2023-02-06T10:22:31.432Z,111.60
2023-02-06T10:25:16.456Z,70.13
2023-02-06T10:27:45.658Z,75.07
2023-02-06T10:30:22.410Z,88.70
2023-02-06T10:33:25.260Z,85.23
2023-02-06T10:36:07.805Z,72.20
2023-02-06T10:39:01.181Z,61.70
2023-02-06T10:41:36.720Z,88.80
2023-02-06T10:44:12.341Z,64.63
2023-02-06T10:46:43.548Z,93.67
2023-02-06T10:49:38.715Z,71.47
2023-02-06T10:52:27.215Z,87.80
2023-02-06T10:54:57.715Z,91.17
2023-02-06T10:57:28.530Z,85.27
2023-02-06T11:00:00.060Z,88.77
2023-02-06T11:02:38.965Z,84.47
2023-02-06T11:05:08.296Z,81.27
2023-02-06T11:07:42.463Z,86.60
2023-02-06T11:10:14.885Z,84.53
2023-02-06T11:12:48.746Z,77.27
2023-02-06T11:15:15.830Z,77.17
2023-02-06T11:17:44.916Z,73.83
2023-02-06T11:20:25.560Z,87.87
2023-02-06T11:22:53.638Z,94.03
2023-02-06T11:25:31.329Z,71.60
2023-02-06T11:27:59.715Z,81.13
2023-02-06T11:30:36.857Z,76.57
2023-02-06T11:33:42.233Z,78.67
2023-02-06T11:36:28.708Z,75.57
2023-02-06T11:39:05.304Z,88.50
2023-02-06T11:41:32.880Z,84.10
2023-02-06T11:44:06.579Z,86.17
2023-02-06T11:46:35.700Z,98.40
2023-02-06T11:49:21.891Z,82.53
2023-02-06T11:51:53.949Z,85.00
2023-02-06T11:54:35.339Z,83.27
2023-02-06T11:57:18.884Z,92.10
2023-02-06T11:59:55.871Z,87.40
2023-02-06T12:02:28.282Z,85.50
2023-02-06T12:05:12.952Z,96.33
2023-02-06T12:08:02.682Z,76.30
2023-02-06T12:10:34.118Z,90.67
2023-02-06T12:13:08.969Z,83.23
2023-02-06T12:15:53.331Z,87.30
2023-02-06T12:18:40.320Z,92.93
2023-02-06T12:21:48.582Z,73.17
2023-02-06T12:24:25.840Z,67.63
2023-02-06T12:26:55.194Z,75.23
2023-02-06T12:29:44.821Z,83.90
2023-02-06T12:32:18.501Z,70.93
2023-02-06T12:34:56.249Z,71.60
2023-02-06T12:37:47.738Z,85.87
2023-02-06T12:40:23.534Z,85.03
2023-02-06T12:43:09.458Z,68.93
2023-02-06T12:46:02.135Z,65.13
2023-02-06T12:48:35.321Z,57.03
2023-02-06T12:51:29.934Z,57.60
2023-02-06T12:54:00.762Z,42.47
2023-02-06T12:56:45.705Z,36.53
2023-02-06T12:59:12.387Z,29.07
2023-02-06T13:02:00.974Z,41.20
2023-02-06T13:04:32.093Z,39.20
2023-02-06T13:07:09.521Z,38.00
2023-02-06T13:09:48.420Z,38.50
2023-02-06T13:12:24.187Z,55.17
2023-02-06T13:15:20.216Z,39.87
2023-02-06T13:17:46.964Z,44.33
2023-02-06T13:20:19.620Z,43.50
2023-02-06T13:22:46.897Z,41.40
2023-02-06T13:25:25.744Z,50.20
2023-02-06T13:27:53.621Z,39.60
2023-02-06T13:30:29.597Z,33.00
2023-02-06T13:32:58.940Z,42.70
2023-02-06T13:35:30.629Z,44.17
2023-02-06T13:38:24.511Z,36.40
2023-02-06T13:41:27.747Z,44.37
2023-02-06T13:44:05.151Z,46.00
2023-02-06T13:47:11.808Z,45.77
2023-02-06T13:49:59.361Z,36.97
2023-02-06T13:52:34.931Z,41.93
2023-02-06T13:55:28.978Z,39.80
2023-02-06T13:58:40.942Z,44.37
2023-02-06T14:01:20.188Z,45.57
2023-02-06T14:03:49.785Z,39.97
2023-02-06T14:06:46.102Z,49.10
2023-02-06T14:09:55.095Z,51.87
2023-02-06T14:12:34.184Z,50.87
2023-02-06T14:15:00.877Z,43.30
2023-02-06T14:17:46.446Z,46.30
2023-02-06T14:20:50.562Z,39.03
2023-02-06T14:23:38.563Z,45.13
2023-02-06T14:26:10.493Z,29.60
2023-02-06T14:29:14.453Z,51.47
2023-02-06T14:32:02.299Z,30.87
2023-02-06T14:34:53.322Z,29.77
2023-02-06T14:38:01.263Z,31.23
2023-02-06T14:40:33.606Z,35.90
2023-02-06T14:43:04.889Z,34.50
2023-02-06T14:45:42.179Z,32.63
2023-02-06T14:48:18.487Z,29.80
2023-02-06T14:50:50.734Z,25.00
2023-02-06T14:53:38.923Z,26.60
2023-02-06T14:56:12.315Z,48.60
2023-02-06T14:58:39.052Z,39.27
2023-02-06T15:01:17.744Z,46.07
2023-02-06T15:03:49.400Z,36.63
2023-02-06T15:06:37.695Z,42.83
2023-02-06T15:09:05.817Z,38.40
2023-02-06T15:11:33.790Z,39.67
2023-02-06T15:14:18.917Z,30.40
2023-02-06T15:16:47.705Z,31.47
2023-02-06T15:19:20.741Z,31.50
2023-02-06T15:21:49.128Z,30.77
2023-02-06T15:24:37.706Z,46.77
2023-02-06T15:27:25.384Z,29.10
2023-02-06T15:29:52.968Z,31.53
2023-02-06T15:32:37.751Z,36.00
2023-02-06T15:35:25.728Z,35.90
2023-02-06T15:37:53.975Z,32.73
2023-02-06T15:40:31.950Z,28.13
2023-02-06T15:42:59.780Z,31.60
2023-02-06T15:45:30.931Z,32.20
2023-02-06T15:48:07.329Z,34.20
2023-02-06T15:50:34.302Z,29.20
2023-02-06T15:53:16.427Z,33.70
2023-02-06T15:55:52.371Z,35.43
2023-02-06T15:58:20.413Z,27.80
2023-02-06T16:00:52.662Z,41.93
2023-02-06T16:03:23.562Z,33.77
2023-02-06T16:05:52.353Z,34.70
2023-02-06T16:08:27.817Z,34.17
2023-02-06T16:10:59.641Z,39.37
2023-02-06T16:13:29.306Z,43.00
2023-02-06T16:16:11.615Z,29.30
2023-02-06T16:18:39.991Z,36.03
2023-02-06T16:21:17.470Z,36.27
2023-02-06T16:23:49.404Z,40.37
2023-02-06T16:26:20.512Z,37.13
2023-02-06T16:28:52.961Z,38.30
2023-02-06T16:31:20.059Z,41.90
2023-02-06T16:33:49.516Z,38.80
2023-02-06T16:36:18.593Z,50.77
2023-02-06T16:38:54.013Z,43.87
2023-02-06T16:41:33.400Z,39.83
2023-02-06T16:44:01.553Z,48.63
2023-02-06T16:46:29.169Z,49.50
2023-02-06T16:48:56.577Z,36.67
2023-02-06T16:51:27.149Z,51.37
2023-02-06T16:53:53.946Z,40.93
2023-02-06T16:56:21.817Z,46.10
2023-02-06T16:58:49.502Z,41.60
2023-02-06T17:01:24.811Z,42.13
2023-02-06T17:03:53.021Z,39.33
2023-02-06T17:06:23.655Z,38.70
2023-02-06T17:08:52.979Z,42.53
2023-02-06T17:11:19.698Z,43.00
2023-02-06T17:13:46.544Z,35.73
2023-02-06T17:16:25.832Z,29.37
2023-02-06T17:18:53.315Z,41.97
2023-02-06T17:21:21.940Z,46.33
2023-02-06T17:23:50.467Z,30.33
2023-02-06T17:26:20.557Z,30.10
2023-02-06T17:28:48.267Z,31.00
2023-02-06T17:31:15.881Z,34.80
2023-02-06T17:33:42.624Z,34.43
2023-02-06T17:36:29.335Z,45.53
2023-02-06T17:39:00.025Z,41.43
2023-02-06T17:41:27.494Z,31.77
2023-02-06T17:43:54.503Z,38.70
2023-02-06T17:46:22.380Z,41.80
2023-02-06T17:48:49.197Z,41.77
2023-02-06T17:51:15.955Z,51.50
2023-02-06T17:53:42.748Z,39.87
2023-02-06T17:56:12.923Z,43.83
2023-02-06T17:58:40.792Z,46.50
2023-02-06T18:01:12.914Z,40.17
2023-02-06T18:03:40.449Z,36.80
2023-02-06T18:06:07.782Z,42.30
2023-02-06T18:08:34.739Z,40.47
2023-02-06T18:11:06.511Z,45.57
2023-02-06T18:13:33.952Z,42.77
2023-02-06T18:16:00.790Z,47.00
2023-02-06T18:18:27.709Z,34.67
2023-02-06T18:20:54.490Z,52.23
2023-02-06T18:24:10.152Z,42.00
2023-02-06T18:26:36.898Z,38.50
2023-02-06T18:29:05.348Z,38.00
2023-02-06T18:31:36.121Z,34.63
2023-02-06T18:34:07.679Z,31.37
2023-02-06T18:36:36.075Z,41.27
2023-02-06T18:39:04.090Z,35.43
2023-02-06T18:41:49.750Z,24.63
2023-02-06T18:44:16.737Z,36.90
2023-02-06T18:46:43.725Z,37.50
2023-02-06T18:49:10.576Z,24.57
2023-02-06T18:51:37.409Z,31.03
2023-02-06T18:54:04.603Z,32.80
2023-02-06T18:56:32.388Z,53.03
2023-02-06T18:58:59.126Z,43.93
2023-02-06T19:01:26.055Z,40.37
2023-02-06T19:03:53.982Z,37.60
2023-02-06T19:06:28.915Z,30.67
2023-02-06T19:08:56.954Z,30.90
2023-02-06T19:11:23.866Z,31.57
2023-02-06T19:13:50.566Z,32.97
2023-02-06T19:16:18.989Z,31.10
2023-02-06T19:18:48.037Z,29.83
2023-02-06T19:21:18.400Z,25.60
2023-02-06T19:23:46.693Z,30.57
2023-02-06T19:26:15.555Z,26.23
2023-02-06T19:28:43.642Z,31.43
2023-02-06T19:31:12.204Z,31.47
2023-02-06T19:33:41.275Z,30.30
2023-02-06T19:36:10.122Z,33.50
2023-02-06T19:38:37.312Z,44.20
2023-02-06T19:41:20.350Z,26.10
2023-02-06T19:43:48.123Z,29.57
2023-02-06T19:46:18.820Z,31.30
2023-02-06T19:48:47.088Z,30.40
2023-02-06T19:51:16.822Z,32.70
2023-02-06T19:53:46.410Z,26.50
2023-02-06T19:56:17.845Z,29.27
2023-02-06T19:58:44.829Z,34.70
2023-02-06T20:01:13.758Z,29.47
2023-02-06T20:03:41.011Z,29.90
2023-02-06T20:06:10.628Z,31.57
2023-02-06T20:08:38.604Z,30.47
2023-02-06T20:11:11.833Z,28.80
2023-02-06T20:13:40.002Z,31.73
2023-02-06T20:16:13.981Z,34.20
2023-02-06T20:18:40.731Z,37.73
2023-02-06T20:21:27.727Z,43.33
2023-02-06T20:23:56.277Z,32.10
2023-02-06T20:26:26.668Z,34.97
2023-02-06T20:28:53.880Z,46.50
2023-02-06T20:31:21.767Z,75.37
2023-02-06T20:33:49.509Z,50.53
2023-02-06T20:36:21.189Z,29.60
2023-02-06T20:38:52.661Z,48.30
2023-02-06T20:41:20.873Z,44.87
2023-02-06T20:43:48.349Z,40.77
2023-02-06T20:46:17.848Z,36.10
2023-02-06T20:48:45.865Z,32.40
2023-02-06T20:51:14.089Z,40.07
2023-02-06T20:53:41.215Z,35.77
2023-02-06T20:56:12.364Z,44.30
2023-02-06T20:58:39.287Z,43.20
2023-02-06T21:01:13.211Z,37.30
2023-02-06T21:03:40.512Z,33.33
2023-02-06T21:06:07.805Z,42.53
2023-02-06T21:08:34.785Z,36.60
2023-02-06T21:11:01.671Z,41.87
2023-02-06T21:13:28.635Z,37.93
2023-02-06T21:15:57.434Z,34.83
2023-02-06T21:18:26.577Z,40.70
2023-02-06T21:20:55.356Z,35.73
2023-02-06T21:23:23.235Z,35.53
2023-02-06T21:25:55.001Z,41.27
2023-02-06T21:28:22.405Z,38.53
2023-02-06T21:30:50.228Z,44.67
2023-02-06T21:33:17.049Z,41.43
2023-02-06T21:35:51.276Z,38.87
2023-02-06T21:38:18.383Z,40.13
2023-02-06T21:40:45.242Z,42.03
2023-02-06T21:43:12.642Z,40.17
2023-02-06T21:45:39.841Z,36.30
2023-02-06T21:48:07.065Z,37.33
2023-02-06T21:50:36.772Z,35.33
2023-02-06T21:53:04.030Z,37.70
2023-02-06T21:55:32.456Z,36.00
2023-02-06T21:58:01.116Z,34.50
2023-02-06T22:00:28.786Z,40.50
2023-02-06T22:02:55.707Z,40.57
2023-02-06T22:05:22.709Z,45.03
2023-02-06T22:07:49.452Z,37.73
2023-02-06T22:10:16.239Z,39.47
2023-02-06T22:12:43.069Z,37.80
2023-02-06T22:15:09.934Z,37.37
2023-02-06T22:17:36.696Z,42.10
2023-02-06T22:20:03.589Z,42.23
2023-02-06T22:22:30.716Z,41.43
2023-02-06T22:24:57.616Z,40.30
2023-02-06T22:27:27.663Z,40.50
2023-02-06T22:29:55.053Z,39.17
2023-02-06T22:32:21.772Z,50.20
2023-02-06T22:34:50.839Z,42.83
2023-02-06T22:37:17.800Z,39.13
2023-02-06T22:39:44.573Z,41.57
2023-02-06T22:42:11.714Z,46.10
2023-02-06T22:44:38.448Z,42.93
2023-02-06T22:47:05.673Z,33.63
2023-02-06T22:49:32.775Z,35.80
2023-02-06T22:51:59.503Z,42.17
2023-02-06T22:54:26.208Z,43.30
2023-02-06T22:56:52.990Z,41.37
2023-02-06T22:59:23.206Z,37.10
2023-02-06T23:01:58.128Z,47.60
2023-02-06T23:04:28.569Z,36.87
2023-02-06T23:06:55.570Z,36.37
2023-02-06T23:09:28.641Z,46.70
2023-02-06T23:11:58.171Z,36.60
2023-02-06T23:14:25.501Z,32.83
2023-02-06T23:16:52.529Z,38.77
2023-02-06T23:19:20.075Z,37.10
2023-02-06T23:21:48.897Z,36.50
2023-02-06T23:24:15.930Z,32.67
2023-02-06T23:26:47.905Z,40.97
2023-02-06T23:29:17.250Z,34.77
2023-02-06T23:31:46.425Z,41.27
2023-02-06T23:34:14.304Z,36.47
2023-02-06T23:36:41.015Z,43.53
2023-02-06T23:39:08.176Z,36.50
2023-02-06T23:41:35.200Z,36.80
2023-02-06T23:44:05.273Z,42.73
2023-02-06T23:46:35.071Z,42.93
2023-02-06T23:49:02.273Z,44.87
2023-02-06T23:51:29.080Z,39.43
2023-02-06T23:53:55.886Z,46.57
2023-02-06T23:56:25.903Z,39.67
2023-02-06T23:58:54.276Z,36.07
